Terminal Aerodrome Forecast
Issued by NWS

Home | Current Version | Previous Version | Graphics & Text | Print | Product List | Glossary On
Versions: 1 2 3 4 5 6 7 8 9 10 11 12 13 14 15 16 17 18 19 20
000
FTUS41 KCLE 261100
TAFFDY
TAF
KFDY 261131Z 2612/2712 01012KT P6SM SCT015 OVC060
      TEMPO 2612/2616 BKN015
     FM261800 36010KT P6SM SCT022 BKN250
     FM270200 34004KT P6SM SCT012 BKN200=

USA.gov is the U.S. government's official web portal to all federal, state and local government web resources and services.